Tiempo atmosférico en la estación meteorológica de Arenys De Mar, Barcelona (50 m.)



Fecha
DESCASC
Temp. máxima en grados centígrados (hora)
DESCASC
Temp. mínima en grados centígrados (hora)
DESCASC
Temp. media en grados centígrados
DESCASC
Racha de viento máxima en m/sg (hora)
DESCASC
Velocidad máxima media en intervalos de 10 minutos(hora)
DESCASC
Precipitaciones diarias en mm
DESCASC
Precipitaciones de 00:00 a 06:00 en mm
DESCASC
Precipitaciones de 06:00 a 12:00 en mm
DESCASC
Precipitaciones de 12:00 a 18:00 en mm
DESCASC
Precipitaciones de 18:00 a 24:00 en mm
DESCASC
18-08-2019 30.8 (10:40) 20.4 (06:30) 25.6 8.61 (14:00) 4.72 (17:00) 0 0 0 0 0
13-08-2019 27.9 (14:10) 18.2 (00:00) 23.1 9.17 (16:30) 4.72 (15:30) 0 0 0 0 0
17-08-2019 30.9 (11:40) 20 (06:40) 25.4 8.61 (15:50) 4.17 (14:20) 0 0 0 0 0
08-08-2019 30.8 (16:40) 22.4 (00:00) 26.6 8.33 (15:40) 4.17 (15:40) 0 0 0 0 0
03-08-2019 31.6 (14:00) 20.8 (00:00) 26.2 8.61 (16:00) 3.89 (16:30) 0 0 0 0 0
09-08-2019 31 (13:10) 21.4 (00:00) 26.2 8.89 (13:30) 3.61 (14:20) 0 0 0 0 0
29-07-2019 29.4 (16:50) 18.8 (00:00) 24.1 8.61 (16:10) 3.61 (14:40) 0 0 0 0 0
04-08-2019 31.7 (11:20) 20.6 (00:00) 26.2 7.5 (17:30) 3.61 (17:30) 0 0 0 0 0
02-08-2019 31.8 (12:10) 20.4 (00:00) 26.1 7.78 (18:10) 3.61 (17:10) 0 0 0 0 0
16-08-2019 29.1 (17:50) 22.1 (01:50) 25.6 8.06 (19:10) 3.33 (18:30) 0 0 0 0 0
23-07-2019 32.1 (14:10) 20.7 (00:00) 26.4 5.28 (15:40) 2.78 (15:00) 0 0 0 0 0
15-08-2019 30.2 (14:40) 19.5 (00:00) 24.9 5.83 (16:00) 2.78 (16:00) 0 0 0 0 0
30-07-2019 29.9 (15:00) 22.2 (00:00) 26.1 6.94 (14:00) 2.78 (13:20) 0 0 0 0 0
27-07-2019 27.6 (09:10) 17.2 (00:00) 22.4 6.94 (22:50) 2.78 (22:40) 43.3 0 0 6.8 36.5
26-07-2019 33.1 (16:40) 21.2 (00:00) 27.1 6.39 (17:20) 2.78 (17:10) 0 0 0 0 0
01-08-2019 31.3 (12:40) 19.7 (00:00) 25.5 6.94 (13:30) 2.5 (02:00) 0 0 0 0 0
05-08-2019 32.4 (12:00) 20.6 (00:00) 26.5 5.28 (13:00) 2.5 (14:40) 0 0 0 0 0
28-07-2019 27.2 (13:20) 16.3 (00:00) 21.8 5.56 (12:30) 2.5 (06:40) 0.4 0.3 0.1 0 0
10-08-2019 31.7 (14:10) 22.9 (00:00) 27.3 5.56 (16:50) 2.5 (11:50) 0 0 0 0 0
11-08-2019 30.9 (12:20) 21 (00:00) 25.9 5.83 (12:50) 2.5 (13:30) 0 0 0 0 0
12-08-2019 28.9 (16:50) 19.4 (00:00) 24.1 5.56 (15:50) 2.5 (04:10) 2.8 2.8 0 0 0
25-07-2019 31.4 (11:50) 21 (00:00) 26.2 5.83 (16:00) 2.5 (16:00) 0 0 0 0 0
31-07-2019 28.3 (14:00) 20.5 (00:00) 24.4 5.83 (13:20) 2.22 (17:00) 0 0 0 0 0
06-08-2019 30.2 (10:30) 21.2 (00:00) 25.7 7.5 (11:10) 2.22 (14:00) 0 0 0 0 0
07-08-2019 30.5 (13:30) 23.1 (00:00) 26.8 5.28 (13:40) 2.22 (13:40) 0 0 0 0 0
14-08-2019 28.5 (13:30) 18.3 (00:00) 23.4 5.56 (14:20) 2.22 (12:40) 0 0 0 0 0
24-07-2019 31.4 (15:50) 21.3 (00:00) 26.3 4.72 (11:40) 2.22 (13:40) 0 0 0 0 0
22-07-2019 32.2 (14:50) 20.4 (00:00) 26.3 4.44 (16:10) 2.22 (17:20) 0 0 0 0 0

Gráficas

Temp. máximas Temp. mínimas Temp. medias Precipitaciones Rachas de viento máximas Velocidades máximas media en intervalos de 10 minutos

Datos horarios

Fecha y hora oficial Temperatura (ºC) Velocidad del viento (km/h) Dirección del viento Racha (km/h) Dirección de racha Precipitación (mm) Presión (hPa) Tendencia (hPa) Humedad (%)
2019-08-20 23:00:00 23.5 9 Noroeste 16 Noroeste 0 -- -- 40
2019-08-20 22:00:00 24.1 7 Norte 17 Norte 0 -- -- 40
2019-08-20 21:00:00 25 5 Norte 14 Norte 0 -- -- 40
2019-08-20 20:00:00 26 5 Norte 15 Nordeste 0 -- -- 37
2019-08-20 19:00:00 26.8 4 Norte 23 Nordeste 0 -- -- 37
2019-08-20 18:00:00 25.4 4 Sudeste 24 Sudeste 0 -- -- 54
2019-08-20 17:00:00 29.4 5 Sudeste 15 Sudeste 0 -- -- 36
2019-08-20 16:00:00 28.4 4 Sudeste 14 Sur 0 -- -- 41
2019-08-20 15:00:00 26.5 3 Este 18 Sur 0 -- -- 50
2019-08-20 14:00:00 27.7 4 Sudeste 16 Nordeste 0 -- -- 49
2019-08-20 13:00:00 25.5 4 Sudeste 20 Este 0 -- -- 51
2019-08-20 12:00:00 27.7 5 Sudeste 23 Sudeste 0 -- -- 42
2019-08-20 11:00:00 28 2 Sudeste 22 Este 0 -- -- 36
2019-08-20 10:00:00 26.9 4 Este 17 Norte 0 -- -- 38
2019-08-20 09:00:00 24 2 Este 9 Este 0 -- -- 48
2019-08-20 08:00:00 22 5 Norte 8 Norte 0 -- -- 56
2019-08-20 07:00:00 21.9 0 Calma 8 Norte 0 -- -- 56
2019-08-20 06:00:00 21 0 Calma 8 Norte 0 -- -- 59
2019-08-20 05:00:00 21.5 5 Norte 9 Norte 0 -- -- 55
2019-08-20 04:00:00 22.7 4 Norte 12 Norte 0 -- -- 50
2019-08-20 03:00:00 23.9 6 Norte 16 Norte 0 -- -- 46
2019-08-20 02:00:00 23.6 7 Norte 18 Nordeste 0 -- -- 47
2019-08-20 01:00:00 23.7 4 Nordeste 13 Nordeste 0 -- -- 51
2019-08-20 00:00:00 23.5 2 Nordeste 13 Norte 0 -- -- 55
2019-08-19 23:00:00 23.8 0 Calma 12 Nordeste 0 -- -- 56
2019-08-19 22:00:00 23.7 2 Nordeste 13 Este 0 -- -- 56
2019-08-19 21:00:00 24 4 Nordeste 16 Sudeste 0 -- -- 55
2019-08-19 20:00:00 24.3 4 Este 18 Este 0 -- -- 54
2019-08-19 19:00:00 25.9 4 Este 21 Este 0 -- -- 51
2019-08-19 18:00:00 27.1 3 Sudeste 21 Este 0 -- -- 45
2019-08-19 17:00:00 25.4 5 Este 19 Sudeste 0 -- -- 50
2019-08-19 16:00:00 26.4 4 Sudeste 20 Este 0 -- -- 48
2019-08-19 15:00:00 27.4 5 Sudeste 22 Sudeste 0 -- -- 47
2019-08-19 14:00:00 28.9 4 Sudeste 22 Este 0 -- -- 45
2019-08-19 13:00:00 27.5 6 Sudeste 23 Sudeste 0 -- -- 49
2019-08-19 12:00:00 29.1 6 Sudeste 22 Sudeste 0 -- -- 49
2019-08-19 11:00:00 28.9 5 Sudeste 20 Este 0 -- -- 50
2019-08-19 10:00:00 27.5 2 Sudeste 23 Este 0 -- -- 56
2019-08-19 09:00:00 25.4 5 Norte 17 Nordeste 0 -- -- 69
2019-08-19 08:00:00 23.3 0 Calma 9 Este 0 -- -- 82
2019-08-19 07:00:00 22.3 4 Norte 8 Norte 0 -- -- 87
2019-08-19 06:00:00 22.2 3 Norte 8 Norte 0 -- -- 86
2019-08-19 05:00:00 22.6 4 Norte 9 Norte 0 -- -- 83
2019-08-19 04:00:00 23.6 3 Nordeste 8 Nordeste 0 -- -- 83
2019-08-19 03:00:00 23.6 0 Calma 4 Norte 0 -- -- 84
2019-08-19 02:00:00 23.6 2 Norte 11 Norte 0 -- -- 84
2019-08-19 01:00:00 23.4 7 Norte 14 Norte 0 -- -- 84
2019-08-19 00:00:00 23.5 5 Norte 9 Norte 0 -- -- 88
2019-08-18 23:00:00 23.7 3 Norte 7 Norte 0 -- -- 87
2019-08-18 22:00:00 24.2 3 Norte 5 Norte 0 -- -- 85
2019-08-18 21:00:00 24.9 0 Calma 12 Sur 0 -- -- 83
2019-08-18 20:00:00 25.6 6 Sur 17 Sudoeste 0 -- -- 80
2019-08-18 19:00:00 26.7 7 Sur 21 Sur 0 -- -- 73
2019-08-18 18:00:00 27.8 13 Sudoeste 29 Sur 0 -- -- 69
2019-08-18 17:00:00 28.2 17 Sur 30 Sur 0 -- -- 66
2019-08-18 16:00:00 28.6 13 Sur 31 Sur 0 -- -- 63
2019-08-18 15:00:00 28.8 15 Sur 30 Sudoeste 0 -- -- 61
2019-08-18 14:00:00 29.7 14 Sur 31 Sudoeste 0 -- -- 58
2019-08-18 13:00:00 30.5 13 Sur 30 Sur 0 -- -- 55
2019-08-18 12:00:00 29.6 13 Sur 24 Sudoeste 0 -- -- 53
2019-08-18 11:00:00 29.3 9 Sur 19 Sur 0 -- -- 51
2019-08-18 10:00:00 28.7 8 Oeste 20 Oeste 0 -- -- 49
2019-08-18 09:00:00 26.7 3 Oeste 13 Oeste 0 -- -- 60
2019-08-18 08:00:00 23.9 3 Noroeste 8 Noroeste 0 -- -- 71
2019-08-18 07:00:00 20.8 2 Norte 6 Norte 0 -- -- 78
2019-08-18 06:00:00 20.5 3 Nordeste 7 Nordeste 0 -- -- 78
2019-08-18 05:00:00 21.1 5 Norte 9 Norte 0 -- -- 84
2019-08-18 04:00:00 20.6 3 Nordeste 6 Nordeste 0 -- -- 86
2019-08-18 03:00:00 20.9 3 Norte 5 Norte 0 -- -- 87
2019-08-18 02:00:00 20.9 0 Calma 4 Norte 0 -- -- 87
2019-08-18 01:00:00 21.5 0 Calma 4 Oeste 0 -- -- 87
2019-08-18 00:00:00 22.5 0 Calma 5 Norte 0 -- -- 85
2019-08-17 23:00:00 23 2 Noroeste 5 Sudoeste 0 -- -- 85
2019-08-17 22:00:00 24.3 0 Calma 11 Sudoeste 0 -- -- 82
2019-08-17 21:00:00 25 5 Sur 15 Sur 0 -- -- 80
2019-08-17 20:00:00 25.8 8 Sur 20 Sur 0 -- -- 74
2019-08-17 19:00:00 27.9 10 Sudoeste 30 Sur 0 -- -- 63
2019-08-17 18:00:00 27.7 11 Sudoeste 30 Sudoeste 0 -- -- 59
2019-08-17 17:00:00 28.4 12 Sur 31 Sudoeste 0 -- -- 59
2019-08-17 16:00:00 28.8 13 Sur 31 Sur 0 -- -- 59
2019-08-17 15:00:00 29.6 13 Sur 31 Sur 0 -- -- 58
2019-08-17 14:00:00 29.4 12 Sur 28 Sudoeste 0 -- -- 60
2019-08-17 13:00:00 29.9 12 Sur 30 Sudoeste 0 -- -- 55
2019-08-17 12:00:00 29.6 11 Sur 26 Sudoeste 0 -- -- 54
2019-08-17 11:00:00 28.6 8 Sudoeste 23 Sur 0 -- -- 50
2019-08-17 10:00:00 28.1 10 Sur 20 Sur 0 -- -- 53
2019-08-17 09:00:00 25.2 3 Sudoeste 10 Sur 0 -- -- 64
2019-08-17 08:00:00 21.7 0 Calma 7 Norte 0 -- -- 81
2019-08-17 07:00:00 20 3 Norte 7 Noroeste 0 -- -- 87
2019-08-17 06:00:00 20.4 3 Norte 6 Norte 0 -- -- 87
2019-08-17 05:00:00 21.2 0 Calma 17 Noroeste 0 -- -- 83
2019-08-17 04:00:00 23.5 3 Noroeste 21 Oeste 0 -- -- 73
2019-08-17 03:00:00 23.7 5 Noroeste 19 Noroeste 0 -- -- 76
2019-08-17 02:00:00 21.6 0 Calma 8 Oeste 0 -- -- 79
2019-08-17 01:00:00 21.5 0 Calma 8 Norte 0 -- -- 82
2019-08-17 00:00:00 22.6 3 Norte 8 Norte 0 -- -- 84
2019-08-16 23:00:00 22.9 0 Calma 8 Sudoeste 0 -- -- 83
2019-08-16 22:00:00 24.7 5 Sudoeste 16 Sudoeste 0 -- -- 78
2019-08-16 21:00:00 25.1 7 Sudoeste 26 Sudoeste 0 -- -- 79
2019-08-16 20:00:00 25.6 11 Sudoeste 29 Sudoeste 0 -- -- 72
2019-08-16 19:00:00 27.5 11 Sudoeste 27 Sudoeste 0 -- -- 59
2019-08-16 18:00:00 27.5 11 Sur 27 Sur 0 -- -- 62
2019-08-16 17:00:00 27.7 10 Sur 23 Sur 0 -- -- 59
2019-08-16 16:00:00 26.5 10 Sur 22 Sudoeste 0 -- -- 60
2019-08-16 15:00:00 25.7 9 Sudoeste 26 Sur 0 -- -- 61
2019-08-16 14:00:00 26.4 12 Sudoeste 27 Sudoeste 0 -- -- 56
2019-08-16 13:00:00 25.7 8 Sudoeste 22 Sudoeste 0 -- -- 57
2019-08-16 12:00:00 25.3 5 Sudoeste 15 Sur 0 -- -- 59
2019-08-16 11:00:00 25.2 4 Sudoeste 8 Sudoeste 0 -- -- 63
2019-08-16 10:00:00 23.1 4 Sudoeste 11 Sur 0 -- -- 73
2019-08-16 09:00:00 23.1 0 Calma 6 Este 0 -- -- 72
2019-08-16 08:00:00 22.9 0 Calma 5 Sudoeste 0 -- -- 74
2019-08-16 07:00:00 22.9 0 Calma 4 Sudoeste 0 -- -- 72
2019-08-16 06:00:00 22.9 3 Norte 5 Norte 0 -- -- 73
2019-08-16 05:00:00 22.8 0 Calma 4 Norte 0 -- -- 72
2019-08-16 04:00:00 22.8 2 Norte 8 Nordeste 0 -- -- 70
2019-08-16 03:00:00 22.7 3 Noroeste 9 Norte 0 -- -- 71
2019-08-16 02:00:00 22.2 6 Norte 11 Norte 0 -- -- 73
2019-08-16 01:00:00 22.7 3 Norte 12 Norte 0 -- -- 71
2019-08-16 00:00:00 22.8 3 Norte 7 Norte 0 -- -- 72
2019-08-15 23:00:00 23.5 3 Norte 8 Norte 0 -- -- 65
2019-08-15 22:00:00 23.6 0 Calma 12 Nordeste 0 -- -- 65
2019-08-15 21:00:00 23.3 3 Norte 11 Nordeste 0 -- -- 67
2019-08-15 20:00:00 23 3 Este 14 Este 0 -- -- 76
2019-08-15 19:00:00 24.2 3 Este 16 Sudeste 0 -- -- 66
2019-08-15 18:00:00 24 2 Este 16 Sudeste 0 -- -- 65
2019-08-15 17:00:00 24.4 3 Este 18 Sur 0 -- -- 65
2019-08-15 16:00:00 29.4 10 Sur 21 Sur 0 -- -- 56
2019-08-15 15:00:00 29.3 6 Sur 18 Nordeste 0 -- -- 57
2019-08-15 14:00:00 28.6 6 Sur 17 Este 0 -- -- 60
2019-08-15 13:00:00 28 4 Este 17 Nordeste 0 -- -- 57
2019-08-15 12:00:00 28.5 3 Este 15 Nordeste 0 -- -- 55
2019-08-15 11:00:00 25.6 3 Sur 8 Nordeste 0 -- -- 69
2019-08-15 10:00:00 24.1 0 Calma 5 Sur 0 -- -- 78
2019-08-15 09:00:00 24.1 0 Calma 4 Norte 0 -- -- 73
2019-08-15 08:00:00 21.6 4 Norte 9 Norte 0 -- -- 81
2019-08-15 07:00:00 19.8 3 Norte 7 Norte 0 -- -- 86
2019-08-15 06:00:00 19.9 3 Norte 10 Norte 0 -- -- 84
2019-08-15 05:00:00 20.4 5 Norte 10 Norte 0 -- -- 83
2019-08-15 04:00:00 20.4 3 Norte 10 Norte 0 -- -- 83
2019-08-15 03:00:00 20 5 Norte 8 Norte 0 -- -- 83
2019-08-15 02:00:00 20.8 2 Norte 6 Norte 0 -- -- 82
2019-08-15 01:00:00 21.1 3 Norte 9 Norte 0 -- -- 79
2019-08-15 00:00:00 21.1 0 Calma 5 Norte 0 -- -- 80
2019-08-14 23:00:00 21.2 4 Norte 10 Norte 0 -- -- 74
2019-08-14 22:00:00 21.6 4 Norte 6 Norte 0 -- -- 73
2019-08-14 21:00:00 22.6 0 Calma 7 Sur 0 -- -- 67
2019-08-14 20:00:00 24.1 4 Sur 10 Sur 0 -- -- 62
2019-08-14 19:00:00 25.8 5 Sur 14 Sur 0 -- -- 56
2019-08-14 18:00:00 24.5 4 Sudeste -- -- -- -- -- 54
2019-08-14 17:00:00 26.7 4 Sudeste 14 Sur 0 -- -- 46
2019-08-14 16:00:00 26.4 5 Sudeste 19 Sur 0 -- -- 45
2019-08-14 15:00:00 28 6 Sudeste 20 Sudeste 0 -- -- 41
2019-08-14 14:00:00 26.3 6 Sudeste 18 Sudeste 0 -- -- 41
2019-08-14 13:00:00 26.4 7 Sur 17 Sur 0 -- -- 41
2019-08-14 12:00:00 26.6 5 Sur 14 Sudoeste 0 -- -- 41
2019-08-14 11:00:00 25.7 5 Sur 12 Sur 0 -- -- 43
2019-08-14 10:00:00 23.6 3 Sudeste 8 Sudeste 0 -- -- 46
2019-08-14 09:00:00 22.1 3 Norte 6 Norte 0 -- -- 54
2019-08-14 08:00:00 19.9 3 Norte 8 Norte 0 -- -- 63
2019-08-14 07:00:00 18.6 3 Norte 12 Norte 0 -- -- 66
2019-08-14 06:00:00 18.8 6 Norte 11 Norte 0 -- -- 68
2019-08-14 05:00:00 19.3 6 Norte 13 Norte 0 -- -- 71
2019-08-14 04:00:00 19.3 6 Norte 13 Norte 0 -- -- 77
2019-08-14 03:00:00 19.5 4 Norte 9 Noroeste 0 -- -- 79
2019-08-14 02:00:00 20.2 4 Norte 9 Nordeste 0 -- -- 79
2019-08-14 01:00:00 21.1 5 Norte 10 Noroeste 0 -- -- 74
2019-08-14 00:00:00 21.7 5 Norte 9 Norte 0 -- -- 70
2019-08-13 23:00:00 21.9 3 Norte 14 Sur 0 -- -- 65
2019-08-13 22:00:00 23.4 4 Sur 13 Sur 0 -- -- 61
2019-08-13 21:00:00 23.6 6 Sur 15 Sudoeste 0 -- -- 51
2019-08-13 20:00:00 24.3 7 Sur 18 Sur 0 -- -- 45
2019-08-13 19:00:00 26.2 6 Sur 21 Sur 0 -- -- 40
2019-08-13 18:00:00 26.9 8 Sur 21 Sur 0 -- -- 40
2019-08-13 17:00:00 26.1 10 Sur 33 Sudoeste 0 -- -- 46
2019-08-13 16:00:00 26.1 14 Sur 31 Sudoeste 0 -- -- 45
2019-08-13 15:00:00 26.3 13 Sur 33 Sur 0 -- -- 40
2019-08-13 14:00:00 26.3 9 Sur 23 Sur 0 -- -- 38
2019-08-13 13:00:00 26.5 9 Sur 22 Sur 0 -- -- 38
2019-08-13 12:00:00 26 9 Sur 23 Sudoeste 0 -- -- 37
2019-08-13 11:00:00 26.1 4 Sudeste 13 Sur 0 -- -- 38
2019-08-13 10:00:00 23.5 3 Sur 7 Sur 0 -- -- 47
2019-08-13 09:00:00 21.2 2 Nordeste 8 Norte 0 -- -- 51
2019-08-13 08:00:00 20.3 5 Norte 10 Norte 0 -- -- 52
2019-08-13 07:00:00 18.6 5 Norte 13 Noroeste 0 -- -- 55
2019-08-13 06:00:00 18.7 7 Norte 13 Norte 0 -- -- 55
2019-08-13 05:00:00 20.5 6 Noroeste 12 Nordeste 0 -- -- 52
2019-08-13 04:00:00 19.1 0 Calma 14 Norte 0 -- -- 55
2019-08-13 03:00:00 19.3 0 Calma 6 Norte 0 -- -- 53
2019-08-13 02:00:00 20.6 2 Nordeste 14 Noroeste 0 -- -- 45
2019-08-13 01:00:00 21.5 8 Norte 14 Norte 0 -- -- 42
2019-08-13 00:00:00 21.1 6 Norte 15 Norte 0 -- -- 46
2019-08-12 23:00:00 21.2 6 Norte 12 Norte 0 -- -- 58
2019-08-12 22:00:00 22.2 3 Norte 10 Noroeste 0 -- -- 53
2019-08-12 21:00:00 23.8 3 Noroeste 8 Noroeste 0 -- -- 54
2019-08-12 20:00:00 24.7 2 Sur 8 Sudeste 0 -- -- 51
2019-08-12 19:00:00 25.2 4 Sur 14 Sur 0 -- -- 48
2019-08-12 18:00:00 27.5 5 Sur 17 Sudeste 0 -- -- 44
2019-08-12 17:00:00 27.8 7 Sur 17 Sudeste 0 -- -- 43
2019-08-12 16:00:00 28.1 8 Sur 20 Sur 0 -- -- 45
2019-08-12 15:00:00 27.3 6 Sur 14 Sudeste 0 -- -- 51
2019-08-12 14:00:00 25.7 6 Sur 13 Sur 0 -- -- 56
2019-08-12 13:00:00 25.8 5 Sur 16 Sudoeste 0 -- -- 52
2019-08-12 12:00:00 25.3 8 Sur 15 Sur 0 -- -- 55
2019-08-12 11:00:00 25.4 5 Sur 12 Sudoeste 0 -- -- 53
2019-08-12 10:00:00 24.1 4 Sudoeste 8 Sudoeste 0 -- -- 61
2019-08-12 09:00:00 21.1 0 Calma 8 Norte 0 -- -- 76
2019-08-12 08:00:00 20.7 3 Norte 9 Norte 0 -- -- 79
2019-08-12 07:00:00 20 3 Norte 13 Noroeste 0 -- -- 82
2019-08-12 06:00:00 20.2 6 Noroeste 11 Noroeste 2.4 -- -- 88
2019-08-12 05:00:00 21.3 4 Norte 16 Noroeste 0.4 -- -- 79
2019-08-12 04:00:00 23.2 7 Norte 13 Nordeste 0 -- -- 59
2019-08-12 03:00:00 22.2 2 Norte 10 Nordeste 0 -- -- 65
2019-08-12 02:00:00 23.4 4 Norte 12 Norte 0 -- -- 60
2019-08-12 01:00:00 24.2 7 Norte 14 Norte 0 -- -- 59
2019-08-12 00:00:00 23.7 7 Norte 12 Nordeste 0 -- -- 62
2019-08-11 23:00:00 24.4 3 Nordeste 12 Nordeste 0 -- -- 65
2019-08-11 22:00:00 24.7 2 Norte 13 Este 0 -- -- 66
2019-08-11 21:00:00 25.2 3 Este 19 Este 0 -- -- 62
2019-08-11 20:00:00 25.7 3 Este 15 Sudeste 0 -- -- 74
2019-08-11 19:00:00 27.3 6 Sur 16 Sur 0 -- -- 62
2019-08-11 18:00:00 28.9 6 Sur 16 Sur 0 -- -- 54
2019-08-11 17:00:00 28.7 8 Sur 17 Sudeste 0 -- -- 48
2019-08-11 16:00:00 30 6 Sur 14 Sur 0 -- -- 44
2019-08-11 15:00:00 28.9 6 Sudeste 17 Sur 0 -- -- 45
2019-08-11 14:00:00 29.3 9 Sur 20 Sur 0 -- -- 50
2019-08-11 13:00:00 29.4 9 Sur 21 Sudoeste 0 -- -- 45
2019-08-11 12:00:00 29.4 9 Sudoeste 19 Sur 0 -- -- 45
2019-08-11 11:00:00 29.6 6 Sudoeste 15 Sudoeste 0 -- -- 43
2019-08-11 10:00:00 28.7 7 Sur 14 Sur 0 -- -- 50
2019-08-11 09:00:00 26.3 5 Sudoeste 12 Sur 0 -- -- 61
2019-08-11 08:00:00 22.5 4 Norte 9 Norte 0 -- -- 69
2019-08-11 07:00:00 21.2 5 Norte 8 Norte 0 -- -- 74
2019-08-11 06:00:00 21.5 4 Norte 8 Norte 0 -- -- 73
2019-08-11 05:00:00 21.7 4 Norte 9 Noroeste 0 -- -- 71
2019-08-11 04:00:00 21.8 4 Norte 7 Norte 0 -- -- 71
2019-08-11 03:00:00 22.2 4 Norte 7 Norte 0 -- -- 69
2019-08-11 02:00:00 22.4 4 Norte 6 Norte 0 -- -- 71
2019-08-11 01:00:00 22.8 2 Norte 8 Norte 0 -- -- 76
2019-08-11 00:00:00 23.6 4 Norte 9 Norte 0 -- -- 75
2019-08-10 23:00:00 24.1 3 Norte 6 Norte 0 -- -- 73
2019-08-10 22:00:00 24.8 0 Calma 5 Norte 0 -- -- 69
2019-08-10 21:00:00 25.3 0 Calma 10 Este 0 -- -- 69
2019-08-10 20:00:00 26 2 Sudeste 12 Sudeste 0 -- -- 63
2019-08-10 19:00:00 28.3 2 Sudeste 13 Este 0 -- -- 49
2019-08-10 18:00:00 29.6 2 Sudeste 14 Sudeste 0 -- -- 44
2019-08-10 17:00:00 29.1 6 Sudeste 20 Sur 0 -- -- 45
2019-08-10 16:00:00 30.7 5 Sudeste 18 Sudeste 0 -- -- 44
2019-08-10 15:00:00 31.2 4 Sudeste 15 Sur 0 -- -- 44
2019-08-10 14:00:00 30.2 8 Sur 17 Sur 0 -- -- 49
2019-08-10 13:00:00 30.7 6 Sur 15 Sur 0 -- -- 49
2019-08-10 12:00:00 30.2 9 Sur 18 Sur 0 -- -- 53
2019-08-10 11:00:00 30.5 6 Sur 15 Sudoeste 0 -- -- 56
2019-08-10 10:00:00 29.4 6 Sudoeste 14 Sudoeste 0 -- -- 59
2019-08-10 09:00:00 27.8 0 Calma 10 Oeste 0 -- -- 69
2019-08-10 08:00:00 24.4 0 Calma 6 Sudoeste 0 -- -- 87
2019-08-10 07:00:00 23.1 0 Calma 5 Nordeste 0 -- -- 88
2019-08-10 06:00:00 23.4 0 Calma 8 Norte 0 -- -- 86
2019-08-10 05:00:00 23.2 3 Norte 7 Norte 0 -- -- 83
2019-08-10 04:00:00 23.6 5 Norte 10 Norte 0 -- -- 82
2019-08-10 03:00:00 23.9 4 Norte 10 Norte 0 -- -- 85
2019-08-10 02:00:00 23.9 3 Norte 9 Norte 0 -- -- 88
2019-08-10 01:00:00 24.6 2 Norte 6 Norte 0 -- -- 88
2019-08-10 00:00:00 24.7 2 Norte 6 Norte 0 -- -- 88
2019-08-09 23:00:00 25.1 0 Calma 4 Sudoeste 0 -- -- 88
2019-08-09 22:00:00 26.1 0 Calma 13 Sudoeste 0 -- -- 88
2019-08-09 21:00:00 26.6 4 Sudoeste 19 Sudoeste 0 -- -- 87
2019-08-09 20:00:00 27.7 7 Sudoeste 18 Sudoeste 0 -- -- 80
2019-08-09 19:00:00 29 7 Sur 17 Sur 0 -- -- 73
2019-08-09 18:00:00 29.7 7 Sur 23 Sur 0 -- -- 69
2019-08-09 17:00:00 28.4 10 Sur 25 Sur 0 -- -- 73
2019-08-09 16:00:00 28.9 8 Sudoeste 22 Sudoeste 0 -- -- 72
2019-08-09 15:00:00 29.8 11 Sur 27 Sur 0 -- -- 68
2019-08-09 14:00:00 30 11 Sur 32 Sur 0 -- -- 65
2019-08-09 13:00:00 29.8 10 Sur 27 Sudoeste 0 -- -- 65
2019-08-09 12:00:00 29.8 12 Sur 26 Sur 0 -- -- 64
2019-08-09 11:00:00 29.9 8 Sudoeste 24 Sudoeste 0 -- -- 60
2019-08-09 10:00:00 28.6 8 Sur 20 Sur 0 -- -- 64
2019-08-09 09:00:00 28 6 Sudoeste 14 Sudoeste 0 -- -- 63
2019-08-09 08:00:00 23 0 Calma 6 Norte 0 -- -- 75
2019-08-09 07:00:00 21.5 2 Norte 6 Norte 0 -- -- 74
2019-08-09 06:00:00 21.7 2 Nordeste 7 Nordeste 0 -- -- 69
2019-08-09 05:00:00 21.8 3 Norte 8 Norte 0 -- -- 75
2019-08-09 04:00:00 22.5 2 Norte 6 Nordeste 0 -- -- 77
2019-08-09 03:00:00 22.2 0 Calma 7 Norte 0 -- -- 76
2019-08-09 02:00:00 22.7 2 Norte 6 Nordeste 0 -- -- 87
2019-08-09 01:00:00 23.5 0 Calma 8 Norte 0 -- -- 86
2019-08-09 00:00:00 24 0 Calma 6 Noroeste 0 -- -- 87
2019-08-08 23:00:00 25.2 5 Noroeste 9 Sudoeste 0 -- -- 87
2019-08-08 22:00:00 25.8 5 Sudoeste 16 Sudoeste 0 -- -- 87
2019-08-08 21:00:00 26.2 4 Sur 16 Sudoeste 0 -- -- 85
2019-08-08 20:00:00 26.7 7 Sur 21 Sudoeste 0 -- -- 81
2019-08-08 19:00:00 28.3 8 Sudoeste 23 Sur 0 -- -- 68
2019-08-08 18:00:00 28.7 10 Sur 23 Sudoeste 0 -- -- 64
2019-08-08 17:00:00 29.3 10 Sur 26 Sudoeste 0 -- -- 66
2019-08-08 16:00:00 28 13 Sur 30 Sudoeste 0 -- -- 73
2019-08-08 15:00:00 29.7 12 Sur 26 Sur 0 -- -- 64
2019-08-08 14:00:00 28.6 9 Sudoeste 24 Sudoeste 0 -- -- 68
2019-08-08 13:00:00 28.8 10 Sudoeste 22 Sur 0 -- -- 71
2019-08-08 12:00:00 29.4 9 Sur 19 Sudoeste 0 -- -- 64
2019-08-08 11:00:00 29.7 5 Sudeste 15 Sudeste 0 -- -- 59
2019-08-08 10:00:00 29.1 3 Sudeste 8 Sur 0 -- -- 59
2019-08-08 09:00:00 26.9 3 Sudeste 7 Nordeste 0 -- -- 72
2019-08-08 08:00:00 23.4 5 Norte 12 Norte 0 -- -- 87
2019-08-08 07:00:00 22.6 4 Norte 8 Norte 0 -- -- 88
2019-08-08 06:00:00 22.9 2 Noroeste 6 Norte 0 -- -- 88
2019-08-08 05:00:00 23.7 0 Calma 7 Norte 0 -- -- 85
2019-08-08 04:00:00 23.7 3 Norte 5 Sudoeste 0 -- -- 85
2019-08-08 03:00:00 23.9 0 Calma 8 Sudoeste 0 -- -- 85
2019-08-08 02:00:00 24.6 4 Norte 10 Norte 0 -- -- 77
2019-08-08 01:00:00 23.6 5 Norte 9 Noroeste 0 -- -- 78
2019-08-08 00:00:00 23.3 0 Calma 7 Noroeste 0 -- -- 81
2019-08-07 23:00:00 23.5 0 Calma 8 Noroeste 0 -- -- 79
2019-08-07 22:00:00 24.2 0 Calma 9 Sudoeste 0 -- -- 82
2019-08-07 21:00:00 24.6 3 Sudoeste 9 Oeste 0 -- -- 78
2019-08-07 20:00:00 25.3 3 Sur 9 Sur 0 -- -- 77
2019-08-07 19:00:00 26.8 2 Sudeste 9 Sudeste 0 -- -- 70
2019-08-07 18:00:00 26.3 5 Sur 10 Sur 0 -- -- 70
2019-08-07 17:00:00 26.4 3 Sur 12 Sur 0 -- -- 71
2019-08-07 16:00:00 26.2 5 Sudeste 16 Sudeste 0 -- -- 71
2019-08-07 15:00:00 27.2 5 Sudeste 18 Sudeste 0 -- -- 67
2019-08-07 14:00:00 28.3 7 Sudeste 19 Sudeste 0 -- -- 63
2019-08-07 13:00:00 29.3 5 Sudeste 17 Sur 0 -- -- 60
2019-08-07 12:00:00 29.7 5 Sudeste 13 Sur 0 -- -- 58
2019-08-07 11:00:00 26.8 3 Sudeste 14 Sudeste 0 -- -- 65
2019-08-07 10:00:00 27.9 5 Sudeste 12 Sudeste 0 -- -- 61
2019-08-07 09:00:00 26.2 3 Sudeste 9 Sur 0 -- -- 70
2019-08-07 08:00:00 23.6 4 Norte 10 Norte 0 -- -- 84
2019-08-07 07:00:00 23.1 5 Norte 11 Norte 0 -- -- 87
2019-08-07 06:00:00 23.2 4 Norte 10 Norte 0 -- -- 87
2019-08-07 05:00:00 23.4 4 Norte 10 Nordeste 0 -- -- 88
2019-08-07 04:00:00 23.1 3 Norte 7 Sudoeste 0 -- -- 88
2019-08-07 03:00:00 23.9 0 Calma 8 Sudoeste 0 -- -- 88
2019-08-07 02:00:00 23.8 4 Sudoeste 9 Sudoeste 0 -- -- 86
2019-08-07 01:00:00 23.4 0 Calma 8 Norte 0 -- -- 86
2019-08-07 00:00:00 23.5 2 Norte 9 Norte 0 -- -- 86
2019-08-06 23:00:00 23.9 3 Norte 6 Norte 0 -- -- 86
2019-08-06 22:00:00 24.4 2 Norte 6 Noroeste 0 -- -- 84
2019-08-06 21:00:00 25.4 0 Calma 8 Sur 0 -- -- 83
2019-08-06 20:00:00 26.8 4 Sur 10 Sur 0 -- -- 79
2019-08-06 19:00:00 26.5 3 Sur 14 Sudeste 0 -- -- 79
2019-08-06 18:00:00 28.2 5 Sur 16 Este 0 -- -- 67
2019-08-06 17:00:00 29.4 6 Sudeste 14 Sudeste 0 -- -- 61
2019-08-06 16:00:00 28.3 7 Sur 17 Sur 0 -- -- 66
2019-08-06 15:00:00 29.3 6 Sudeste 17 Sudeste 0 -- -- 60
2019-08-06 14:00:00 29.1 8 Sudeste 18 Sudeste 0 -- -- 57
2019-08-06 13:00:00 29.1 6 Sur 18 Sudeste 0 -- -- 56
2019-08-06 12:00:00 28.7 5 Sudeste 27 Este 0 -- -- 59
2019-08-06 11:00:00 28.4 6 Sudeste 24 Sudeste 0 -- -- 52
2019-08-06 10:00:00 28.7 4 Sur 7 Sudeste 0 -- -- 44
2019-08-06 09:00:00 27.2 0 Calma 7 Norte 0 -- -- 55
2019-08-06 08:00:00 22.6 4 Norte 11 Norte 0 -- -- 67
2019-08-06 07:00:00 22.1 2 Norte 10 Norte 0 -- -- 78
2019-08-06 06:00:00 22 4 Norte 9 Nordeste 0 -- -- 62
2019-08-06 05:00:00 21.9 5 Norte 9 Norte 0 -- -- 52
2019-08-06 04:00:00 21.9 6 Norte 11 Norte 0 -- -- 50
2019-08-06 03:00:00 22 3 Norte 9 Norte 0 -- -- 54
2019-08-06 02:00:00 22.4 6 Norte 13 Norte 0 -- -- 48
2019-08-06 01:00:00 22 4 Norte 9 Norte 0 -- -- 55
2019-08-06 00:00:00 22.5 2 Norte 9 Noroeste 0 -- -- 45
2019-08-05 23:00:00 23.4 5 Norte 8 Norte 0 -- -- 59
2019-08-05 22:00:00 23.9 2 Norte 5 Nordeste 0 -- -- 78
2019-08-05 21:00:00 25.5 3 Sur 7 Sudeste 0 -- -- 78
2019-08-05 20:00:00 27.5 3 Sur 16 Sur 0 -- -- 53
2019-08-05 19:00:00 31.1 5 Sudoeste 15 Sudoeste 0 -- -- 26
2019-08-05 18:00:00 30.6 6 Sudoeste 19 Sudoeste 0 -- -- 44
2019-08-05 17:00:00 30.7 7 Sur 15 Sur 0 -- -- 49
2019-08-05 16:00:00 31.2 5 Sur 18 Sudeste 0 -- -- 38
2019-08-05 15:00:00 31.3 6 Sur 18 Sur 0 -- -- 46
2019-08-05 14:00:00 30.1 7 Sur 18 Sur 0 -- -- 45
2019-08-05 13:00:00 30.7 8 Sur 19 Sur 0 -- -- 43
2019-08-05 12:00:00 31.2 5 Sudeste 14 Sur 0 -- -- 31
2019-08-05 11:00:00 30 5 Sudeste 12 Sudeste 0 -- -- 35
2019-08-05 10:00:00 30.2 3 Sudeste 9 Sudeste 0 -- -- 34
2019-08-05 09:00:00 27.4 0 Calma 4 Nordeste 0 -- -- 42
2019-08-05 08:00:00 22.8 0 Calma 6 Norte 0 -- -- 54
2019-08-05 07:00:00 21.2 2 Norte 6 Norte 0 -- -- 55
2019-08-05 06:00:00 20.9 0 Calma 6 Norte 0 -- -- 58
2019-08-05 05:00:00 21.4 4 Norte 9 Norte 0 -- -- 63
2019-08-05 04:00:00 21.3 3 Norte 8 Norte 0 -- -- 79
2019-08-05 03:00:00 22.4 0 Calma 5 Norte 0 -- -- 84
2019-08-05 02:00:00 22.2 3 Nordeste 7 Oeste 0 -- -- 80
2019-08-05 01:00:00 22.7 0 Calma 9 Oeste 0 -- -- 85
2019-08-05 00:00:00 22.9 3 Norte 6 Norte 0 -- -- 83
2019-08-04 23:00:00 24.4 0 Calma 13 Sudoeste 0 -- -- 85
2019-08-04 22:00:00 25.1 5 Sudoeste 12 Oeste 0 -- -- 82
2019-08-04 21:00:00 26 4 Sudoeste 15 Sur 0 -- -- 70
2019-08-04 20:00:00 27.7 6 Sur 16 Sudoeste 0 -- -- 54
2019-08-04 19:00:00 27.6 7 Sudoeste 23 Sur 0 -- -- 61
2019-08-04 18:00:00 30.2 12 Sudoeste 27 Sudoeste 0 -- -- 38
2019-08-04 17:00:00 28.8 13 Sur 23 Sur 0 -- -- 54
2019-08-04 16:00:00 29.5 7 Sur 19 Sur 0 -- -- 56
2019-08-04 15:00:00 29.3 6 Sur 18 Sudeste 0 -- -- 63
2019-08-04 14:00:00 29.8 6 Sur 18 Sur 0 -- -- 58
2019-08-04 13:00:00 29.5 7 Sudeste 17 Sudeste 0 -- -- 50
2019-08-04 12:00:00 30.2 5 Sur 15 Sudeste 0 -- -- 48
2019-08-04 11:00:00 29.8 6 Sur 11 Sur 0 -- -- 42
2019-08-04 10:00:00 30 3 Sudeste 8 Sudeste 0 -- -- 42
2019-08-04 09:00:00 27.5 0 Calma 5 Sudeste 0 -- -- 47
2019-08-04 08:00:00 22.8 0 Calma 6 Norte 0 -- -- 65
2019-08-04 07:00:00 20.7 0 Calma 3 Noroeste 0 -- -- 70
2019-08-04 06:00:00 21.5 0 Calma 8 Noroeste 0 -- -- 67
2019-08-04 05:00:00 21.8 3 Norte 13 Noroeste 0 -- -- 67
2019-08-04 04:00:00 22.9 0 Calma 15 Oeste 0 -- -- 62
2019-08-04 03:00:00 23.8 3 Oeste 12 Sudoeste 0 -- -- 58
2019-08-04 02:00:00 23.4 3 Oeste 6 Sudoeste 0 -- -- 59
2019-08-04 01:00:00 22.8 0 Calma 12 Sudoeste 0 -- -- 65
2019-08-04 00:00:00 24.8 8 Sudoeste 17 Sur 0 -- -- 59
2019-08-03 23:00:00 24.2 2 Oeste 12 Sudoeste 0 -- -- 75
2019-08-03 22:00:00 24.6 5 Sudoeste 13 Sudoeste 0 -- -- 73
2019-08-03 21:00:00 25.3 7 Sudoeste 17 Sudoeste 0 -- -- 70
2019-08-03 20:00:00 26.3 4 Sudoeste 20 Sur 0 -- -- 64
2019-08-03 19:00:00 27.2 10 Sur 26 Sudoeste 0 -- -- 61
2019-08-03 18:00:00 28.6 8 Sudoeste 29 Sur 0 -- -- 55
2019-08-03 17:00:00 28.7 10 Sur 27 Sur 0 -- -- 55
2019-08-03 16:00:00 28.9 10 Sur 31 Sur 0 -- -- 46
2019-08-03 15:00:00 29.6 9 Sur 23 Sudoeste 0 -- -- 44
2019-08-03 14:00:00 30.8 6 Sur 18 Sur 0 -- -- 42
2019-08-03 13:00:00 29.3 6 Sudeste 15 Sudeste 0 -- -- 49
2019-08-03 12:00:00 29.2 6 Sudeste 14 Sudeste 0 -- -- 49
2019-08-03 11:00:00 30 5 Sur 15 Sur 0 -- -- 38
2019-08-03 10:00:00 28.7 4 Sudeste 9 Sudeste 0 -- -- 49
2019-08-03 09:00:00 26.9 3 Sudeste 8 Sudeste 0 -- -- 48
2019-08-03 08:00:00 22.1 0 Calma 5 Noroeste 0 -- -- 56
2019-08-03 07:00:00 21.2 0 Calma 7 Norte 0 -- -- 54
2019-08-03 06:00:00 22.2 3 Noroeste 13 Norte 0 -- -- 48
2019-08-03 05:00:00 21.2 2 Norte 5 Norte 0 -- -- 52
2019-08-03 04:00:00 21.6 0 Calma 7 Norte 0 -- -- 51
2019-08-03 03:00:00 22.4 3 Norte 13 Noroeste 0 -- -- 48
2019-08-03 02:00:00 23.4 8 Noroeste 14 Noroeste 0 -- -- 49
2019-08-03 01:00:00 24.2 8 Noroeste 12 Noroeste 0 -- -- 51
2019-08-03 00:00:00 23.9 8 Norte 13 Norte 0 -- -- 55
2019-08-02 23:00:00 22.7 4 Norte 6 Noroeste 0 -- -- 60
2019-08-02 22:00:00 24 3 Norte 18 Sudoeste 0 -- -- 62
2019-08-02 21:00:00 24.8 4 Oeste 12 Sudoeste 0 -- -- 59
2019-08-02 20:00:00 25.8 5 Sur 19 Sur 0 -- -- 54
2019-08-02 19:00:00 27.3 10 Sur 28 Sur 0 -- -- 49
2019-08-02 18:00:00 27.6 12 Sur 26 Sur 0 -- -- 46
2019-08-02 17:00:00 28.4 11 Sur 24 Sur 0 -- -- 43
2019-08-02 16:00:00 -- 11 Sudoeste 24 Sudoeste 0 -- -- --
2019-08-02 15:00:00 29.3 8 Sur 18 Sudoeste 0 -- -- 44
2019-08-02 14:00:00 30.4 5 Sudeste 13 Sudeste 0 -- -- 40
2019-08-02 13:00:00 29.9 6 Sudeste 14 Sudeste 0 -- -- 41
2019-08-02 12:00:00 31.5 4 Sudeste 10 Sur 0 -- -- 34
2019-08-02 11:00:00 28.9 3 Sudeste 12 Este 0 -- -- 37
2019-08-02 10:00:00 29.1 3 Sudeste 9 Sudeste 0 -- -- 36
2019-08-02 09:00:00 27 0 Calma 7 Norte 0 -- -- 43
2019-08-02 08:00:00 22.9 4 Norte 10 Noroeste 0 -- -- 50
2019-08-02 07:00:00 20.5 5 Norte 10 Norte 0 -- -- 56
2019-08-02 06:00:00 21.1 5 Norte 10 Norte 0 -- -- 55
2019-08-02 05:00:00 21.4 4 Norte 8 Norte 0 -- -- 54
2019-08-02 04:00:00 22.1 0 Calma 4 Sudoeste 0 -- -- 53
2019-08-02 03:00:00 21.9 0 Calma 12 Norte 0 -- -- 52
2019-08-02 02:00:00 21.7 4 Norte 13 Norte 0 -- -- 47
2019-08-02 01:00:00 21.4 7 Norte 13 Norte 0 -- -- 46
2019-08-02 00:00:00 21.3 4 Norte 8 Norte 0 -- -- 46
2019-08-01 23:00:00 22.1 2 Noroeste 9 Norte 0 -- -- 45
2019-08-01 22:00:00 22.7 0 Calma 8 Noroeste 0 -- -- 50
2019-08-01 21:00:00 24.3 2 Sudeste 10 Este 0 -- -- 48
2019-08-01 20:00:00 26.1 2 Sudeste 10 Sudeste 0 -- -- 40
2019-08-01 19:00:00 27.1 3 Sudeste 14 Este 0 -- -- 37
2019-08-01 18:00:00 27.8 4 Sudeste 21 Este 0 -- -- 35
2019-08-01 17:00:00 28.6 5 Sudeste 23 Sudeste 0 -- -- 30
2019-08-01 16:00:00 30.3 5 Sudeste 21 Sudeste 0 -- -- 29
2019-08-01 15:00:00 29.7 5 Sudeste 23 Nordeste 0 -- -- 28
2019-08-01 14:00:00 29.5 6 Sudeste 25 Sudeste 0 -- -- 28
2019-08-01 13:00:00 31.1 5 Sudeste 19 Sudeste 0 -- -- 29
2019-08-01 12:00:00 30.4 3 Sudeste 19 Sudeste 0 -- -- 27
2019-08-01 11:00:00 29 3 Sudeste 16 Este 0 -- -- 30
2019-08-01 10:00:00 27.3 2 Nordeste 23 Este 0 -- -- 31
2019-08-01 09:00:00 25.3 3 Este 14 Este 0 -- -- 40
2019-08-01 08:00:00 21.3 2 Sudeste 11 Norte 0 -- -- 66
2019-08-01 07:00:00 19.7 0 Calma 9 Norte 0 -- -- 71
2019-08-01 06:00:00 19.9 0 Calma 14 Norte 0 -- -- 69
2019-08-01 05:00:00 21.3 5 Norte 15 Norte 0 -- -- 62
2019-08-01 04:00:00 20.4 5 Norte 10 Norte 0 -- -- 73
2019-08-01 03:00:00 21.2 0 Calma 14 Norte 0 -- -- 72
2019-08-01 02:00:00 21.4 9 Noroeste 14 Noroeste 0 -- -- 72
2019-08-01 01:00:00 20.9 4 Norte 11 Noroeste 0 -- -- 76
2019-08-01 00:00:00 21.6 3 Noroeste 10 Norte 0 -- -- 73
2019-07-31 23:00:00 21.2 4 Norte 9 Norte 0 -- -- 73
2019-07-31 22:00:00 21.6 2 Nordeste 5 Sur 0 -- -- 69
2019-07-31 21:00:00 22.8 3 Sur 9 Sur 0 -- -- 60
2019-07-31 20:00:00 23.8 3 Sur 10 Sur 0 -- -- 55
2019-07-31 19:00:00 25.8 3 Sur 13 Sur 0 -- -- 48
2019-07-31 18:00:00 26.1 5 Sur 16 Sur 0 -- -- 47
2019-07-31 17:00:00 26.1 8 Sur 17 Sur 0 -- -- 47
2019-07-31 16:00:00 25.9 6 Sur 18 Sudeste 0 -- -- 45
2019-07-31 15:00:00 26.7 7 Sudeste 18 Sudeste 0 -- -- 44
2019-07-31 14:00:00 26.8 7 Sudeste 21 Sudeste 0 -- -- 44
2019-07-31 13:00:00 27 6 Sudeste 17 Sur 0 -- -- 44
2019-07-31 12:00:00 26.5 8 Sudeste 19 Sudeste 0 -- -- 43
2019-07-31 11:00:00 27.6 3 Sudeste 13 Este 0 -- -- 41
2019-07-31 10:00:00 25.4 4 Sudeste 10 Sudeste 0 -- -- 46
2019-07-31 09:00:00 24.7 0 Calma 5 Sur 0 -- -- 51
2019-07-31 08:00:00 22.1 0 Calma 7 Norte 0 -- -- 66
2019-07-31 07:00:00 20.8 3 Norte 6 Norte 0 -- -- 77
2019-07-31 06:00:00 21.1 0 Calma 4 Norte 0 -- -- 79
2019-07-31 05:00:00 22.7 0 Calma 8 Noroeste 0 -- -- 72
2019-07-31 04:00:00 22.5 4 Norte 11 Noroeste 0 -- -- 68
2019-07-31 03:00:00 22.8 3 Noroeste 8 Norte 0 -- -- 64
2019-07-31 02:00:00 22.9 5 Norte 11 Norte 0 -- -- 65
2019-07-31 01:00:00 22.3 4 Norte 9 Noroeste 0 -- -- 71
2019-07-31 00:00:00 23.2 4 Norte 7 Norte 0 -- -- 71
2019-07-30 23:00:00 22.6 0 Calma 6 Norte 0 -- -- 72
2019-07-30 22:00:00 23.8 0 Calma 6 Sur 0 -- -- 65
2019-07-30 21:00:00 24.6 3 Sur 9 Sudeste 0 -- -- 62
2019-07-30 20:00:00 25.2 4 Sur 14 Sudeste 0 -- -- 62
2019-07-30 19:00:00 25.8 6 Sur 16 Sudeste 0 -- -- 59
2019-07-30 18:00:00 26.5 8 Sur 17 Sur 0 -- -- 58
2019-07-30 17:00:00 27.1 8 Sur 18 Sudoeste 0 -- -- 57
2019-07-30 16:00:00 28.2 8 Sur 20 Sudoeste 0 -- -- 51
2019-07-30 15:00:00 28.4 9 Sur 21 Sur 0 -- -- 55
2019-07-30 14:00:00 27.7 10 Sur 25 Sudoeste 0 -- -- 57
2019-07-30 13:00:00 28 7 Sur 21 Sudoeste 0 -- -- 63
2019-07-30 12:00:00 28.3 6 Sur 15 Sudeste 0 -- -- 65
2019-07-30 11:00:00 27.6 4 Sudeste 15 Sudeste 0 -- -- 62
2019-07-30 10:00:00 28.1 2 Este 9 Norte 0 -- -- 55
2019-07-30 09:00:00 25.6 0 Calma 8 Este 0 -- -- 64
2019-07-30 08:00:00 24.1 0 Calma 7 Norte 0 -- -- 86
2019-07-30 07:00:00 22.3 4 Norte 8 Norte 0 -- -- 88
2019-07-30 06:00:00 22.4 2 Norte 6 Norte 0 -- -- 88
2019-07-30 05:00:00 22.6 3 Norte 14 Norte 0 -- -- 88
2019-07-30 04:00:00 22.6 8 Norte 14 Norte 0 -- -- 89
2019-07-30 03:00:00 22.7 3 Norte 8 Norte 0 -- -- 88
2019-07-30 02:00:00 22.6 4 Norte 7 Norte 0 -- -- 88
2019-07-30 01:00:00 22.7 3 Norte 8 Norte 0 -- -- 87
2019-07-30 00:00:00 23 3 Norte 7 Norte 0 -- -- 87
2019-07-29 23:00:00 23.4 3 Norte 7 Norte 0 -- -- 86
2019-07-29 22:00:00 24.1 0 Calma 12 Sudoeste 0 -- -- 84
2019-07-29 21:00:00 25.2 5 Sudoeste 18 Sur 0 -- -- 80
2019-07-29 20:00:00 25.7 8 Sur 22 Sur 0 -- -- 78
2019-07-29 19:00:00 26.6 9 Sur 23 Sur 0 -- -- 71
2019-07-29 18:00:00 27.1 10 Sur 24 Sudoeste 0 -- -- 64
2019-07-29 17:00:00 27.8 10 Sur 31 Sudoeste 0 -- -- 61
2019-07-29 16:00:00 27.7 12 Sur 29 Sudoeste 0 -- -- 59
2019-07-29 15:00:00 27.5 13 Sur 26 Sur 0 -- -- 55
2019-07-29 14:00:00 27.7 9 Sur 22 Sur 0 -- -- 54
2019-07-29 13:00:00 27.9 6 Sur 18 Sudeste 0 -- -- 51
2019-07-29 12:00:00 27.2 6 Sur 16 Sudeste 0 -- -- 50
2019-07-29 11:00:00 27.3 5 Sudeste 15 Sudeste 0 -- -- 49
2019-07-29 10:00:00 26.5 5 Sudeste 13 Sudeste 0 -- -- 52
2019-07-29 09:00:00 25.3 3 Sudeste 9 Sur 0 -- -- 57
2019-07-29 08:00:00 20.8 4 Norte 11 Norte 0 -- -- 77
2019-07-29 07:00:00 19.7 5 Norte 12 Norte 0 -- -- 81
2019-07-29 06:00:00 19.9 5 Norte 11 Norte 0 -- -- 79
2019-07-29 05:00:00 19 5 Norte 11 Norte 0 -- -- 80
2019-07-29 04:00:00 19.1 5 Norte 11 Norte 0 -- -- 79
2019-07-29 03:00:00 19.1 7 Norte 12 Norte 0 -- -- 77
2019-07-29 02:00:00 19.3 6 Norte 12 Norte 0 -- -- 74
2019-07-29 01:00:00 19.7 7 Norte 14 Norte 0 -- -- 71
2019-07-29 00:00:00 19.5 7 Norte 13 Norte 0 -- -- 70
2019-07-28 23:00:00 19.7 6 Norte 13 Norte 0 -- -- 69
2019-07-28 22:00:00 20.6 4 Norte 9 Norte 0 -- -- 62
2019-07-28 21:00:00 22.4 4 Noroeste 7 Noroeste 0 -- -- 51
2019-07-28 20:00:00 23.8 3 Sur 7 Sudeste 0 -- -- 45
2019-07-28 19:00:00 25.6 4 Sur 14 Sur 0 -- -- 41
2019-07-28 18:00:00 26.6 5 Sur 15 Sudeste 0 -- -- 40
2019-07-28 17:00:00 26.1 5 Sur 17 Sur 0 -- -- 39
2019-07-28 16:00:00 26.7 7 Sudeste 18 Sur 0 -- -- 43
2019-07-28 15:00:00 25.8 7 Sur 17 Sur 0 -- -- 46
2019-07-28 14:00:00 26.2 5 Sur 16 Sudoeste 0 -- -- 50
2019-07-28 13:00:00 26 3 Sur 20 Sudeste 0 -- -- 49
2019-07-28 12:00:00 25.3 6 Sudeste 15 Sudeste 0 -- -- 47
2019-07-28 11:00:00 25.1 4 Sudeste 16 Sudeste 0.1 -- -- 47
2019-07-28 10:00:00 24.4 3 Sudeste 7 Sudeste 0 -- -- 49
2019-07-28 09:00:00 21.3 2 Norte 15 Nordeste 0 -- -- 61
2019-07-28 08:00:00 17.7 8 Norte 15 Norte 0 -- -- 83
2019-07-28 07:00:00 16.5 7 Norte 13 Noroeste 0 -- -- 88
2019-07-28 06:00:00 16.6 5 Norte 10 Noroeste 0 -- -- 89
2019-07-28 05:00:00 16.6 6 Norte 9 Noroeste 0 -- -- 90
2019-07-28 04:00:00 17.3 2 Norte 11 Norte 0 -- -- 90
2019-07-28 03:00:00 17.7 4 Norte 11 Norte 0 -- -- 90
2019-07-28 02:00:00 17.5 4 Norte 12 Norte 0.1 -- -- 90
2019-07-28 01:00:00 17.6 5 Norte 10 Norte 0.2 -- -- 90
2019-07-28 00:00:00 17.4 0 Calma 19 Norte 7.2 -- -- 90
2019-07-27 23:00:00 17.5 0 Calma 25 Noroeste 29.3 -- -- 89
2019-07-26 12:00:00 30.9 6 Sudeste 13 Sudeste 0 -- -- 50
2019-07-26 11:00:00 30.6 5 Sur 12 Sudeste 0 -- -- 45
2019-07-26 10:00:00 29.4 4 Sudeste 10 Sudeste 0 -- -- 40
2019-07-26 09:00:00 28.9 0 Calma 4 Nordeste 0 -- -- 38
2019-07-26 08:00:00 24.1 2 Norte 8 Norte 0 -- -- 47
2019-07-26 07:00:00 22.3 4 Norte 11 Norte 0 -- -- 54
2019-07-26 06:00:00 21.3 3 Norte 7 Norte 0 -- -- 61
2019-07-26 05:00:00 21.7 3 Norte 8 Norte 0 -- -- 59
2019-07-26 04:00:00 21.8 3 Norte 8 Norte 0 -- -- 64
2019-07-26 03:00:00 22 4 Norte 8 Norte 0 -- -- 81
2019-07-26 02:00:00 22.4 5 Norte 10 Norte 0 -- -- 80
2019-07-26 01:00:00 22.4 4 Norte 9 Norte 0 -- -- 80
2019-07-26 00:00:00 23 4 Norte 8 Norte 0 -- -- 80
2019-07-25 23:00:00 24 3 Norte 5 Norte 0 -- -- 85
2019-07-25 22:00:00 25 0 Calma 6 Sur 0 -- -- 85
2019-07-25 21:00:00 26 3 Sur 9 Sur 0 -- -- 82
2019-07-25 20:00:00 27 4 Sur 13 Sur 0 -- -- 77
2019-07-25 19:00:00 28.2 5 Sur 16 Sudoeste 0 -- -- 68
2019-07-25 18:00:00 28.5 7 Sur 16 Sur 0 -- -- 65
2019-07-25 17:00:00 29.2 8 Sur 18 Sudoeste 0 -- -- 64
2019-07-25 16:00:00 29.8 9 Sur 21 Sur 0 -- -- 61
2019-07-25 15:00:00 30.5 7 Sur 17 Sudoeste 0 -- -- 58
2019-07-25 14:00:00 29.5 8 Sur 18 Sur 0 -- -- 59
2019-07-25 13:00:00 29 6 Sur 16 Este 0 -- -- 61
2019-07-25 12:00:00 30.8 6 Sur 12 Sudeste 0 -- -- 53
2019-07-25 11:00:00 29.2 6 Sur 13 Sur 0 -- -- 59
2019-07-25 10:00:00 28.8 5 Sudeste 10 Sudeste 0 -- -- 61
2019-07-25 09:00:00 27.1 4 Sur 8 Sur 0 -- -- 72
2019-07-25 08:00:00 23.6 2 Norte 8 Norte 0 -- -- 71
2019-07-25 07:00:00 21.6 3 Norte 9 Norte 0 -- -- 73
2019-07-25 06:00:00 21.5 2 Norte 8 Norte 0 -- -- 72
2019-07-25 05:00:00 21.3 2 Norte 6 Norte 0 -- -- 65
2019-07-25 04:00:00 21.3 3 Norte 9 Norte 0 -- -- 63
2019-07-25 03:00:00 22.2 4 Norte 9 Norte 0 -- -- 68
2019-07-25 02:00:00 22.7 4 Norte 8 Norte 0 -- -- 80
2019-07-25 01:00:00 23 5 Norte 10 Nordeste 0 -- -- 66
2019-07-25 00:00:00 23.4 5 Norte 8 Norte 0 -- -- 64
2019-07-24 23:00:00 23.6 4 Norte 5 Norte 0 -- -- 65
2019-07-24 22:00:00 24.8 0 Calma 6 Sur 0 -- -- 65
2019-07-24 21:00:00 26.2 3 Sur 8 Sur 0 -- -- 62
2019-07-24 20:00:00 27.6 3 Sur 10 Sur 0 -- -- 47
2019-07-24 19:00:00 28.5 4 Sudeste 10 Sur 0 -- -- 52
2019-07-24 18:00:00 29.1 6 Sur 13 Sur 0 -- -- 54
2019-07-24 17:00:00 29.8 6 Sur 14 Sudeste 0 -- -- 52
2019-07-24 16:00:00 30.6 5 Sur 17 Sudeste 0 -- -- 49
2019-07-24 15:00:00 29.5 7 Sur 17 Este 0 -- -- 57
2019-07-24 14:00:00 29.8 6 Sur 16 Sudeste 0 -- -- 60
2019-07-24 13:00:00 29.4 7 Sudeste 15 Sudeste 0 -- -- 59
2019-07-24 12:00:00 30 6 Sudeste 17 Sudeste 0 -- -- 56
2019-07-24 11:00:00 29.2 5 Sur 13 Sudeste 0 -- -- 54
2019-07-24 10:00:00 29 5 Sur 10 Sudeste 0 -- -- 55
2019-07-24 09:00:00 28.1 0 Calma 6 Norte 0 -- -- 47
2019-07-24 08:00:00 23.5 3 Norte 10 Noroeste 0 -- -- 75
2019-07-24 07:00:00 22 6 Norte 14 Norte 0 -- -- 81
2019-07-24 06:00:00 21.6 3 Norte 10 Norte 0 -- -- 87
2019-07-24 05:00:00 21.8 0 Calma 8 Norte 0 -- -- 88
2019-07-24 04:00:00 22.2 0 Calma 5 Norte 0 -- -- 88
2019-07-24 03:00:00 22.2 0 Calma 5 Norte 0 -- -- 88
2019-07-24 02:00:00 23.1 0 Calma 6 Noroeste 0 -- -- 87
2019-07-24 01:00:00 23.3 0 Calma 8 Norte 0 -- -- 87
2019-07-24 00:00:00 23.5 3 Norte 7 Norte 0 -- -- 85
2019-07-23 23:00:00 24.1 0 Calma 5 Noroeste 0 -- -- 85
2019-07-23 22:00:00 25.2 0 Calma 6 Sur 0 -- -- 82
2019-07-23 21:00:00 26.1 3 Sur 9 Sur 0 -- -- 79
2019-07-23 20:00:00 27.1 4 Sudeste 12 Sudeste 0 -- -- 76
2019-07-23 19:00:00 28.8 6 Sur 14 Sur 0 -- -- 60
2019-07-23 18:00:00 29.4 6 Sur 15 Sudeste 0 -- -- 57
2019-07-23 17:00:00 29.6 7 Sur 19 Sudeste 0 -- -- 57
2019-07-23 16:00:00 29.9 8 Sur 19 Sur 0 -- -- 54
2019-07-23 15:00:00 30.3 10 Sur 18 Sudoeste 0 -- -- 49
2019-07-23 14:00:00 29.9 8 Sur 18 Sur 0 -- -- 49
2019-07-23 13:00:00 30.5 6 Sur 15 Sur 0 -- -- 53
2019-07-23 12:00:00 29.8 5 Sudeste 17 Sudoeste 0 -- -- 61
2019-07-23 11:00:00 29 5 Sudeste 14 Sudeste 0 -- -- 64
2019-07-23 10:00:00 28.4 4 Sudeste 10 Sudeste 0 -- -- 63
2019-07-23 09:00:00 27.7 0 Calma 8 Norte 0 -- -- 59
2019-07-23 08:00:00 22.8 3 Norte 9 Norte 0 -- -- 66
2019-07-23 07:00:00 21.1 5 Norte 9 Norte 0 -- -- 71
2019-07-23 06:00:00 21 5 Norte 10 Norte 0 -- -- 68
2019-07-23 05:00:00 20.9 3 Norte 7 Norte 0 -- -- 68
2019-07-23 04:00:00 21.2 3 Norte 7 Norte 0 -- -- 71
2019-07-23 03:00:00 21.4 2 Norte 7 Norte 0 -- -- 77
2019-07-23 02:00:00 22 2 Norte 7 Norte 0 -- -- 70
2019-07-23 01:00:00 22.2 2 Norte 6 Norte 0 -- -- 60
2019-07-23 00:00:00 22.7 3 Norte 6 Norte 0 -- -- 65
2019-07-22 23:00:00 23.1 3 Norte 5 Norte 0 -- -- 75
2019-07-22 22:00:00 24.8 0 Calma 8 Sudoeste 0 -- -- 80
2019-07-22 21:00:00 26.3 3 Sudoeste 9 Sur 0 -- -- 73
2019-07-22 20:00:00 27 4 Sur 11 Sudoeste 0 -- -- 66
2019-07-22 19:00:00 28.4 6 Sur 13 Sudoeste 0 -- -- 57
2019-07-22 18:00:00 29.8 6 Sur 15 Sur 0 -- -- 54
2019-07-22 17:00:00 30 6 Sudeste 16 Sudeste 0 -- -- 57
2019-07-22 16:00:00 29.9 6 Sudeste 15 Sudeste 0 -- -- 52
2019-07-22 15:00:00 31.2 6 Sur 15 Sur 0 -- -- 42
2019-07-22 14:00:00 30.3 5 Sur 13 Sudeste 0 -- -- 40
2019-07-22 13:00:00 30.3 5 Sudeste 13 Sudeste 0 -- -- 45
2019-07-22 12:00:00 29.1 5 Sudeste 13 Sudeste 0 -- -- 53
2019-07-22 11:00:00 29.2 4 Sur 10 Sur 0 -- -- 50
2019-07-22 10:00:00 27.4 4 Sudeste 9 Sudeste 0 -- -- 50
2019-07-22 09:00:00 27.4 0 Calma 5 Sur 0 -- -- 54
2019-07-22 08:00:00 23 0 Calma 6 Norte 0 -- -- 68
2019-07-22 07:00:00 20.9 3 Norte 7 Nordeste 0 -- -- 83
2019-07-22 06:00:00 20.9 4 Norte 9 Nordeste 0 -- -- 77
2019-07-22 05:00:00 20.6 3 Norte 9 Norte 0 -- -- 72
2019-07-22 04:00:00 21 3 Norte 8 Norte 0 -- -- 69
2019-07-22 03:00:00 21.8 4 Norte 7 Noroeste 0 -- -- 58
2019-07-22 02:00:00 21.7 4 Norte 7 Norte 0 -- -- 54
2019-07-22 01:00:00 22.1 4 Norte 9 Nordeste 0 -- -- 59
2019-07-22 00:00:00 23 0 Calma 7 Nordeste 0 -- -- 70